NCAR-RAP Real-Time Weather Data

Output produced by METARs form (01 December 2020  18:37 UTC)
found at http://weather.rap.ucar.edu/surface/
 
KOSH 011653Z 34009KT 10SM CLR M02/M07 A3007 RMK AO2 SLP201 T10171072
KOSH 011553Z 33011KT 10SM CLR M03/M08 A3008 RMK AO2 SLP203 T10331078
KOSH 011453Z 32009KT 10SM CLR M05/M08 A3007 RMK AO2 SLP202 T10501083 53012
KOSH 011353Z 30009KT 10SM CLR M07/M09 A3006 RMK AO2 SLP197 T10671094
KOSH 011253Z 29007KT 10SM FEW023 M07/M09 A3005 RMK AO2 SLP195 T10721094
KOSH 011153Z 29006KT 10SM OVC022 M07/M09 A3004 RMK AO2 SLP190 T10671089 11044 21067 53006
KOSH 011053Z AUTO 31007KT 10SM OVC023 M06/M09 A3002 RMK AO2 SLP183 T10611089
KOSH 010953Z AUTO 32006KT 10SM OVC023 M05/M09 A3001 RMK AO2 SLP181 T10501089
KOSH 010853Z AUTO 34007KT 10SM OVC024 M04/M09 A3002 RMK AO2 SLP183 T10441089 56003
KOSH 010753Z AUTO 35009KT 10SM OVC025 M04/M09 A3002 RMK AO2 SLP185 T10441094
KOSH 010653Z AUTO 36009KT 10SM OVC025 M04/M09 A3002 RMK AO2 SLP183 T10441094
KOSH 010553Z AUTO 34008KT 10SM OVC026 M04/M09 A3003 RMK AO2 SLP187 T10441089 11022 21044 400061044 56004
KOSH 010453Z AUTO 33009KT 10SM OVC027 M04/M09 A3003 RMK AO2 SLP187 T10441089